Time;durP1;ratioP1;P1;durP2;ratioP2;P2;SDS_P1;SDS_P2;PMS_P1;PMS_P2;Temp;Humidity;BMP_temperature;BMP_pressure;BME280_temperature;BME280_humidity;BME280_pressure;Samples;Min_cycle;Max_cycle;Signal;HPM_P1;HPM_P2
2022/09/22 00:01:20;;;;;;;17.25;13.73;;;9.70;83.70;;;;;;4920266;29;20475;-90
2022/09/22 00:03:49;;;;;;;16.05;13.60;;;9.60;83.70;;;;;;4923250;29;20111;-90
2022/09/22 00:06:37;;;;;;;15.57;13.93;;;9.60;83.90;;;;;;4914885;29;20224;-91
2022/09/22 00:09:05;;;;;;;14.55;12.88;;;9.60;84.00;;;;;;4913886;29;20388;-90
2022/09/22 00:11:37;;;;;;;17.33;13.18;;;9.60;84.30;;;;;;4908248;29;20120;-90
2022/09/22 00:14:07;;;;;;;13.95;12.35;;;9.60;84.30;;;;;;4913058;29;20064;-90
2022/09/22 00:16:46;;;;;;;15.95;12.82;;;9.60;84.30;;;;;;4916378;29;20035;-90
2022/09/22 00:19:17;;;;;;;15.90;13.60;;;9.60;84.40;;;;;;4925747;29;20480;-91
2022/09/22 00:21:43;;;;;;;15.38;13.35;;;9.60;84.40;;;;;;4932126;29;20040;-90
2022/09/22 00:24:09;;;;;;;15.40;13.18;;;9.60;84.50;;;;;;4911776;29;20193;-90
2022/09/22 00:26:37;;;;;;;15.75;14.00;;;9.60;84.50;;;;;;4928498;29;20063;-90
2022/09/22 00:29:06;;;;;;;21.05;14.45;;;9.60;84.60;;;;;;4928945;29;20507;-90
2022/09/22 00:31:32;;;;;;;18.95;14.18;;;9.60;84.90;;;;;;4914475;29;20531;-90
2022/09/22 00:33:58;;;;;;;16.85;13.80;;;9.60;85.10;;;;;;4915213;29;20040;-90
2022/09/22 00:36:26;;;;;;;17.67;14.48;;;9.60;85.30;;;;;;4911243;29;20029;-90
2022/09/22 00:38:53;;;;;;;17.55;14.88;;;9.60;85.40;;;;;;4930202;29;20036;-91
2022/09/22 00:41:26;;;;;;;16.70;14.50;;;9.50;85.60;;;;;;4917989;29;20084;-90
2022/09/22 00:44:17;;;;;;;17.58;14.50;;;9.50;85.80;;;;;;4909070;29;20037;-90
2022/09/22 00:46:46;;;;;;;17.48;14.15;;;9.50;85.80;;;;;;4915251;29;20055;-90
2022/09/22 00:49:13;;;;;;;16.30;14.07;;;9.40;85.70;;;;;;4912721;29;20055;-90
2022/09/22 00:51:42;;;;;;;14.85;12.90;;;9.40;85.60;;;;;;4924265;29;20048;-91
2022/09/22 00:54:11;;;;;;;16.25;14.15;;;9.30;85.70;;;;;;4918196;29;20040;-91
2022/09/22 00:56:53;;;;;;;16.10;12.85;;;9.30;85.90;;;;;;4920082;29;20115;-90
2022/09/22 00:59:20;;;;;;;18.38;13.32;;;9.30;85.90;;;;;;4920958;29;20036;-89
2022/09/22 01:01:46;;;;;;;16.10;13.68;;;9.30;85.70;;;;;;4927014;29;20045;-90
2022/09/22 01:04:13;;;;;;;16.25;14.55;;;9.20;85.60;;;;;;4936992;29;20039;-90
2022/09/22 01:06:40;;;;;;;15.40;12.98;;;9.20;85.70;;;;;;4915247;29;20072;-90
2022/09/22 01:09:11;;;;;;;19.27;13.63;;;9.10;85.80;;;;;;4912164;29;20041;-90
2022/09/22 01:11:38;;;;;;;16.40;13.85;;;9.10;85.90;;;;;;4929573;29;20056;-89
2022/09/22 01:14:35;;;;;;;16.70;13.32;;;9.10;85.80;;;;;;4934009;29;20059;-89
2022/09/22 01:17:14;;;;;;;16.55;13.55;;;9.10;85.90;;;;;;4929297;29;20040;-89
2022/09/22 01:19:59;;;;;;;18.45;14.73;;;9.10;85.80;;;;;;4928374;29;20111;-90
2022/09/22 01:22:58;;;;;;;17.45;13.80;;;9.10;85.70;;;;;;4929529;29;20167;-90
2022/09/22 01:25:48;;;;;;;15.05;13.45;;;9.10;85.80;;;;;;4930865;29;20071;-90
2022/09/22 01:28:39;;;;;;;16.70;14.00;;;9.10;85.80;;;;;;4942358;29;20040;-89
2022/09/22 01:31:26;;;;;;;14.48;13.05;;;9.10;85.90;;;;;;4928827;29;20048;-90
2022/09/22 01:34:22;;;;;;;15.18;13.43;;;9.00;85.90;;;;;;4929714;29;20017;-90
2022/09/22 01:37:09;;;;;;;17.80;15.02;;;9.00;86.00;;;;;;4936138;29;20760;-88
2022/09/22 01:39:50;;;;;;;17.65;14.00;;;8.90;86.10;;;;;;4928575;29;20052;-89
2022/09/22 01:42:35;;;;;;;15.45;13.70;;;8.90;86.20;;;;;;4930701;29;20182;-89
2022/09/22 01:45:21;;;;;;;16.27;14.57;;;8.90;86.40;;;;;;4917904;29;20070;-89
2022/09/22 01:47:55;;;;;;;18.95;15.05;;;8.90;86.50;;;;;;4924187;29;20047;-90
2022/09/22 01:50:28;;;;;;;17.23;13.55;;;8.90;86.60;;;;;;4928648;29;20040;-90
2022/09/22 01:52:59;;;;;;;15.07;13.48;;;8.90;86.50;;;;;;4939790;29;20060;-89
2022/09/22 01:55:30;;;;;;;15.45;12.90;;;8.90;86.50;;;;;;4928143;29;20062;-90
2022/09/22 01:58:03;;;;;;;16.77;13.95;;;8.90;86.30;;;;;;4932005;29;20080;-90
2022/09/22 02:00:31;;;;;;;14.85;13.35;;;8.90;86.30;;;;;;4946076;29;20036;-90
2022/09/22 02:03:04;;;;;;;18.92;14.90;;;8.90;86.30;;;;;;4930440;29;20040;-90
2022/09/22 02:05:42;;;;;;;16.83;15.00;;;8.80;86.30;;;;;;4945065;28;20046;-90
2022/09/22 02:08:20;;;;;;;16.85;14.45;;;8.80;86.40;;;;;;4929865;29;20024;-89
2022/09/22 02:10:47;;;;;;;16.83;14.50;;;8.70;86.30;;;;;;4941828;29;20048;-90
2022/09/22 02:13:13;;;;;;;19.50;16.00;;;8.70;86.40;;;;;;4944330;29;20084;-90
2022/09/22 02:18:43;;;;;;;16.30;13.98;;;8.80;86.40;;;;;;4921755;29;20392;-90
2022/09/22 02:21:10;;;;;;;21.02;15.13;;;8.70;86.10;;;;;;4922570;29;20044;-90
2022/09/22 02:23:39;;;;;;;17.30;14.20;;;8.70;85.90;;;;;;4908254;29;20093;-91
2022/09/22 02:26:05;;;;;;;21.55;15.05;;;8.60;86.10;;;;;;4926423;29;20047;-90
2022/09/22 02:28:33;;;;;;;16.20;13.82;;;8.60;86.10;;;;;;4918600;29;20071;-90
2022/09/22 02:31:03;;;;;;;18.23;14.98;;;8.60;86.20;;;;;;4910113;29;20491;-90
2022/09/22 02:33:30;;;;;;;17.33;15.35;;;8.60;86.00;;;;;;4925596;28;20074;-90
2022/09/22 02:36:19;;;;;;;15.30;13.68;;;8.60;85.80;;;;;;4921905;29;20017;-90
2022/09/22 02:38:59;;;;;;;17.10;14.35;;;8.60;85.80;;;;;;4909092;29;20047;-89
2022/09/22 02:42:12;;;;;;;15.55;13.70;;;8.50;85.90;;;;;;4905322;29;20052;-91
2022/09/22 02:44:48;;;;;;;15.43;12.68;;;8.50;86.00;;;;;;4897837;29;20047;-90
2022/09/22 02:47:23;;;;;;;15.15;13.05;;;8.40;86.00;;;;;;4920195;29;20077;-90
2022/09/22 02:49:50;;;;;;;15.73;13.15;;;8.50;86.00;;;;;;4913097;29;20103;-89
2022/09/22 02:52:20;;;;;;;15.70;13.52;;;8.40;86.00;;;;;;4910938;29;20036;-90
2022/09/22 02:54:45;;;;;;;14.93;13.20;;;8.40;86.20;;;;;;4906226;29;20114;-89
2022/09/22 02:57:11;;;;;;;13.77;12.43;;;8.30;86.30;;;;;;4909632;29;20472;-90
2022/09/22 02:59:37;;;;;;;16.48;13.25;;;8.30;86.40;;;;;;4928357;29;20044;-90
2022/09/22 03:02:03;;;;;;;16.30;12.48;;;8.30;86.30;;;;;;4909875;29;20437;-91
2022/09/22 03:04:28;;;;;;;15.10;13.25;;;8.30;86.30;;;;;;4924132;29;20055;-89
2022/09/22 03:06:54;;;;;;;14.38;12.85;;;8.30;86.20;;;;;;4921663;29;20036;-90
2022/09/22 03:09:22;;;;;;;16.33;12.30;;;8.30;86.30;;;;;;4925788;28;20091;-91
2022/09/22 03:11:48;;;;;;;14.50;12.88;;;8.30;86.40;;;;;;4903633;29;20135;-90
2022/09/22 03:14:14;;;;;;;15.77;12.75;;;8.30;86.40;;;;;;4924738;28;20127;-90
2022/09/22 03:16:39;;;;;;;15.65;12.88;;;8.30;86.30;;;;;;4926280;29;20142;-90
2022/09/22 03:19:05;;;;;;;13.88;11.93;;;8.30;86.20;;;;;;4909751;29;20063;-89
2022/09/22 03:21:31;;;;;;;12.77;11.40;;;8.20;86.20;;;;;;4908316;29;20044;-90
2022/09/22 03:23:56;;;;;;;16.20;12.48;;;8.20;86.20;;;;;;4928712;28;20444;-91
2022/09/22 03:26:22;;;;;;;14.68;12.50;;;8.20;86.10;;;;;;4911357;29;20128;-90
2022/09/22 03:28:48;;;;;;;17.27;13.57;;;8.20;86.00;;;;;;4929984;28;20056;-90
2022/09/22 03:31:14;;;;;;;18.20;13.65;;;8.10;86.00;;;;;;4917039;29;20044;-89
2022/09/22 03:33:39;;;;;;;16.23;13.25;;;8.10;86.10;;;;;;4911771;29;20039;-91
2022/09/22 03:36:05;;;;;;;16.48;12.77;;;8.10;86.30;;;;;;4914292;29;20092;-90
2022/09/22 03:38:32;;;;;;;15.23;12.52;;;8.10;86.50;;;;;;4927414;28;20051;-90
2022/09/22 03:40:57;;;;;;;15.82;12.00;;;8.10;86.50;;;;;;4916437;29;20469;-90
2022/09/22 03:43:23;;;;;;;16.50;12.57;;;8.10;86.50;;;;;;4913670;28;20088;-89
2022/09/22 03:45:57;;;;;;;16.15;12.40;;;8.10;86.30;;;;;;4931457;29;20032;-89
2022/09/22 03:48:23;;;;;;;14.30;12.13;;;8.10;86.20;;;;;;4929732;28;20035;-89
2022/09/22 03:50:49;;;;;;;16.77;13.23;;;8.10;86.10;;;;;;4931189;29;20139;-89
2022/09/22 03:53:14;;;;;;;14.10;12.05;;;8.10;86.00;;;;;;4924672;29;20135;-89
2022/09/22 03:55:40;;;;;;;16.98;13.18;;;8.00;85.90;;;;;;4909810;29;20051;-89
2022/09/22 03:58:06;;;;;;;19.10;14.30;;;8.00;85.80;;;;;;4915016;29;20079;-89
2022/09/22 04:00:31;;;;;;;14.63;12.55;;;8.00;85.90;;;;;;4932406;28;20047;-89
2022/09/22 04:02:57;;;;;;;15.40;12.88;;;7.90;86.20;;;;;;4911388;29;20028;-90
2022/09/22 04:05:24;;;;;;;14.73;12.98;;;7.90;86.30;;;;;;4930791;29;20040;-90
2022/09/22 04:07:50;;;;;;;15.00;13.40;;;7.90;86.40;;;;;;4911648;29;20043;-90
2022/09/22 04:10:15;;;;;;;17.65;13.48;;;7.90;86.30;;;;;;4925226;29;20036;-88
2022/09/22 04:12:42;;;;;;;16.50;12.40;;;7.90;86.40;;;;;;4929054;29;20056;-89
2022/09/22 04:15:08;;;;;;;15.65;12.90;;;7.90;86.50;;;;;;4909338;29;20085;-90
2022/09/22 04:17:36;;;;;;;15.32;13.00;;;7.90;86.50;;;;;;4911765;29;20036;-90
2022/09/22 04:20:06;;;;;;;17.55;13.75;;;7.90;86.30;;;;;;4925448;28;20519;-89
2022/09/22 04:22:31;;;;;;;15.20;12.70;;;7.90;86.30;;;;;;4909686;29;20040;-90
2022/09/22 04:24:57;;;;;;;16.92;12.80;;;7.80;86.50;;;;;;4926726;29;20086;-89
2022/09/22 04:27:23;;;;;;;17.63;13.85;;;7.80;86.40;;;;;;4909436;29;20148;-89
2022/09/22 04:29:49;;;;;;;17.40;13.02;;;7.70;86.60;;;;;;4915637;29;20444;-89
2022/09/22 04:32:15;;;;;;;17.55;13.43;;;7.70;86.70;;;;;;4912131;29;20055;-90
2022/09/22 04:34:44;;;;;;;16.30;12.80;;;7.70;86.80;;;;;;4908023;29;20033;-89
2022/09/22 04:37:10;;;;;;;14.55;12.07;;;7.70;86.90;;;;;;4923120;29;20095;-90
2022/09/22 04:39:37;;;;;;;17.33;13.05;;;7.70;86.90;;;;;;4908219;28;20088;-89
2022/09/22 04:42:03;;;;;;;15.73;12.10;;;7.70;86.80;;;;;;4909063;29;20373;-89
2022/09/22 04:44:29;;;;;;;14.57;12.35;;;7.70;86.80;;;;;;4909116;29;20664;-88
2022/09/22 04:46:56;;;;;;;15.95;13.02;;;7.70;86.90;;;;;;4906733;29;20107;-87
2022/09/22 04:49:22;;;;;;;15.43;12.82;;;7.80;86.80;;;;;;4919723;28;20384;-88
2022/09/22 04:51:48;;;;;;;14.60;12.40;;;7.80;86.80;;;;;;4919369;29;20051;-88
2022/09/22 04:54:14;;;;;;;16.92;13.65;;;7.80;86.80;;;;;;4907152;29;20040;-88
2022/09/22 04:56:41;;;;;;;15.32;12.75;;;7.70;86.90;;;;;;4909200;29;20392;-88
2022/09/22 04:59:07;;;;;;;20.02;15.00;;;7.70;86.90;;;;;;4909170;29;20037;-88
2022/09/22 05:01:33;;;;;;;19.10;16.35;;;7.70;87.00;;;;;;4910942;29;20037;-88
2022/09/22 05:03:59;;;;;;;20.70;17.33;;;7.70;87.10;;;;;;4904676;29;20827;-89
2022/09/22 05:06:25;;;;;;;20.10;17.67;;;7.70;87.10;;;;;;4931614;29;20036;-89
2022/09/22 05:08:51;;;;;;;27.95;19.60;;;7.70;87.20;;;;;;4910058;29;20496;-89
2022/09/22 05:11:23;;;;;;;26.25;19.83;;;7.60;87.20;;;;;;4911555;29;20055;-89
2022/09/22 05:13:49;;;;;;;26.23;18.30;;;7.60;87.30;;;;;;4909356;29;20041;-89
2022/09/22 05:16:16;;;;;;;32.20;19.48;;;7.60;87.30;;;;;;4914595;29;20326;-90
2022/09/22 05:18:42;;;;;;;34.53;21.15;;;7.70;87.30;;;;;;4908539;28;20040;-88
2022/09/22 05:21:08;;;;;;;31.17;19.63;;;7.60;87.30;;;;;;4925466;29;20071;-89
2022/09/22 05:23:38;;;;;;;25.80;17.60;;;7.60;87.30;;;;;;4924912;28;20392;-89
2022/09/22 05:26:04;;;;;;;23.85;17.85;;;7.60;87.40;;;;;;4908989;29;20036;-89
2022/09/22 05:29:31;;;;;;;24.50;16.42;;;7.60;87.10;;;;;;4887642;28;20372;-87
2022/09/22 05:31:56;;;;;;;19.88;14.98;;;7.60;87.10;;;;;;4907290;29;20044;-89
2022/09/22 05:34:22;;;;;;;17.23;14.07;;;7.60;87.30;;;;;;4923220;28;20044;-90
2022/09/22 05:36:47;;;;;;;17.38;13.73;;;7.50;87.30;;;;;;4909512;29;20040;-89
2022/09/22 05:39:16;;;;;;;16.65;13.48;;;7.60;87.50;;;;;;4913387;28;20048;-89
2022/09/22 05:41:42;;;;;;;15.77;13.38;;;7.60;87.60;;;;;;4896867;29;20097;-89
2022/09/22 05:44:07;;;;;;;16.63;14.18;;;7.60;87.60;;;;;;4916400;28;20039;-89
2022/09/22 05:46:36;;;;;;;20.92;14.20;;;7.60;87.60;;;;;;4925171;29;20184;-89
2022/09/22 05:49:02;;;;;;;18.10;14.75;;;7.60;87.40;;;;;;4909107;29;20489;-89
2022/09/22 05:51:28;;;;;;;17.95;13.88;;;7.60;87.30;;;;;;4923446;29;20052;-89
2022/09/22 05:53:54;;;;;;;18.83;14.05;;;7.60;87.30;;;;;;4909275;29;20051;-89
2022/09/22 05:56:20;;;;;;;21.88;14.20;;;7.60;87.20;;;;;;4923539;29;20040;-89
2022/09/22 05:58:46;;;;;;;17.65;13.82;;;7.60;87.10;;;;;;4912036;28;20036;-89
2022/09/22 06:01:15;;;;;;;19.58;14.10;;;7.60;87.00;;;;;;4914025;29;20046;-89
2022/09/22 06:03:43;;;;;;;21.42;15.10;;;7.70;86.80;;;;;;4922640;28;20496;-88
2022/09/22 06:06:08;;;;;;;20.17;15.30;;;7.70;86.80;;;;;;4921362;29;20040;-89
2022/09/22 06:08:34;;;;;;;18.98;14.77;;;7.70;86.80;;;;;;4922985;28;20043;-89
2022/09/22 06:11:00;;;;;;;19.88;14.43;;;7.70;86.90;;;;;;4909273;29;20048;-89
2022/09/22 06:13:26;;;;;;;19.40;14.20;;;7.80;86.90;;;;;;4922872;29;20048;-89
2022/09/22 06:15:52;;;;;;;19.55;14.55;;;7.80;86.90;;;;;;4913619;29;20054;-90
2022/09/22 06:18:17;;;;;;;17.70;14.13;;;7.90;86.80;;;;;;4926353;29;20032;-88
2022/09/22 06:20:44;;;;;;;18.27;14.50;;;7.90;86.70;;;;;;4926227;28;20091;-87
2022/09/22 06:23:12;;;;;;;19.42;14.90;;;8.00;86.70;;;;;;4924143;29;20455;-87
2022/09/22 06:25:38;;;;;;;18.55;14.00;;;8.10;87.10;;;;;;4909141;29;20611;-87
2022/09/22 06:28:06;;;;;;;16.45;12.90;;;8.70;86.70;;;;;;4903401;29;20067;-88
2022/09/22 06:30:33;;;;;;;16.33;11.55;;;9.50;85.10;;;;;;4929412;28;20090;-87
2022/09/22 06:32:59;;;;;;;17.05;12.85;;;10.30;82.20;;;;;;4931047;29;20051;-87
2022/09/22 06:35:35;;;;;;;17.17;12.85;;;11.00;79.60;;;;;;4907689;28;20044;-88
2022/09/22 06:38:01;;;;;;;20.48;13.30;;;11.60;77.40;;;;;;4919110;29;20135;-88
2022/09/22 06:40:27;;;;;;;15.43;11.73;;;12.10;75.30;;;;;;4922315;29;20040;-88
2022/09/22 06:43:13;;;;;;;17.38;11.88;;;12.30;73.70;;;;;;4922866;29;20044;-89
2022/09/22 06:45:40;;;;;;;17.52;13.48;;;12.30;73.00;;;;;;4907200;29;20040;-87
2022/09/22 06:48:06;;;;;;;17.33;13.35;;;11.90;73.40;;;;;;4906395;29;20036;-87
2022/09/22 06:50:31;;;;;;;17.90;13.13;;;11.50;74.80;;;;;;4926495;29;20056;-87
2022/09/22 06:53:06;;;;;;;17.42;12.95;;;11.10;76.20;;;;;;4906323;29;20040;-88
2022/09/22 06:55:34;;;;;;;18.60;12.90;;;10.90;77.60;;;;;;4908316;29;20068;-89
2022/09/22 06:58:03;;;;;;;20.02;14.32;;;10.70;78.50;;;;;;4908739;29;20044;-89
2022/09/22 07:00:33;;;;;;;17.80;14.32;;;10.60;79.40;;;;;;4923104;29;20544;-89
2022/09/22 07:03:07;;;;;;;17.55;14.77;;;10.60;80.10;;;;;;4908921;29;20040;-89
2022/09/22 07:05:35;;;;;;;19.10;16.80;;;10.60;80.80;;;;;;4922426;28;20048;-88
2022/09/22 07:08:03;;;;;;;18.58;15.00;;;10.60;80.90;;;;;;4920513;29;20048;-88
2022/09/22 07:10:30;;;;;;;18.15;15.05;;;10.60;81.30;;;;;;4909703;29;20058;-88
2022/09/22 07:12:59;;;;;;;17.83;15.00;;;10.60;81.40;;;;;;4921725;29;20492;-87
2022/09/22 07:15:27;;;;;;;17.27;15.45;;;10.60;81.60;;;;;;4905511;29;20045;-88
2022/09/22 07:17:53;;;;;;;17.05;15.20;;;10.60;81.80;;;;;;4907724;29;20537;-88
2022/09/22 07:20:20;;;;;;;22.63;17.17;;;10.70;81.90;;;;;;4908735;29;20056;-88
2022/09/22 07:22:46;;;;;;;19.45;16.15;;;10.70;82.30;;;;;;4908543;29;20044;-89
2022/09/22 07:25:12;;;;;;;19.83;16.05;;;10.80;82.50;;;;;;4907588;29;20031;-88
2022/09/22 07:27:38;;;;;;;21.88;17.80;;;11.00;82.70;;;;;;4904937;29;20037;-88
2022/09/22 07:30:04;;;;;;;20.42;18.20;;;11.10;82.80;;;;;;4905192;29;20071;-88
2022/09/22 07:32:34;;;;;;;19.52;17.27;;;11.30;82.90;;;;;;4905021;29;20275;-88
2022/09/22 07:35:00;;;;;;;21.30;16.65;;;11.40;82.90;;;;;;4906372;29;20066;-89
2022/09/22 07:37:28;;;;;;;25.25;18.17;;;11.60;82.90;;;;;;4920983;29;20059;-89
2022/09/22 07:39:55;;;;;;;23.52;17.38;;;11.80;82.40;;;;;;4905193;29;20048;-89
2022/09/22 07:42:21;;;;;;;26.60;17.45;;;12.00;82.20;;;;;;4926622;29;20036;-89
2022/09/22 07:45:28;;;;;;;23.52;17.67;;;12.20;81.30;;;;;;4911179;29;20036;-89
2022/09/22 07:50:19;;;;;;;29.80;19.98;;;12.70;79.80;;;;;;4910849;29;20044;-89
2022/09/22 07:52:52;;;;;;;24.98;18.20;;;13.00;79.00;;;;;;4928742;29;20040;-89
2022/09/22 07:55:23;;;;;;;24.77;18.15;;;13.10;78.20;;;;;;4907291;29;20488;-89
2022/09/22 07:57:59;;;;;;;25.25;17.48;;;13.40;77.30;;;;;;4909091;29;20040;-89
2022/09/22 08:00:31;;;;;;;23.75;17.63;;;13.60;75.80;;;;;;4927555;29;20269;-89
2022/09/22 08:02:57;;;;;;;28.70;17.45;;;13.70;75.00;;;;;;4915819;29;20032;-89
2022/09/22 08:05:25;;;;;;;28.10;16.65;;;13.80;73.80;;;;;;4908040;29;20087;-89
2022/09/22 08:07:51;;;;;;;25.08;17.02;;;14.00;72.50;;;;;;4915301;29;20138;-89
2022/09/22 08:10:18;;;;;;;23.55;14.98;;;14.20;72.80;;;;;;4903972;29;20574;-88
2022/09/22 08:12:44;;;;;;;19.98;12.95;;;14.30;71.80;;;;;;4909698;29;20128;-90
2022/09/22 08:15:11;;;;;;;19.95;12.80;;;14.60;70.00;;;;;;4912248;29;20170;-89
2022/09/22 08:17:38;;;;;;;20.20;13.45;;;14.60;70.90;;;;;;4911057;29;20143;-89
2022/09/22 08:20:06;;;;;;;20.35;13.30;;;14.90;70.60;;;;;;4912190;29;20036;-90
2022/09/22 08:22:32;;;;;;;17.00;12.50;;;15.10;69.60;;;;;;4912392;29;20097;-90
2022/09/22 08:24:57;;;;;;;19.77;13.13;;;15.10;67.60;;;;;;4911443;29;20591;-89
2022/09/22 08:27:24;;;;;;;19.90;13.05;;;15.30;67.80;;;;;;4926275;29;20059;-90
2022/09/22 08:29:50;;;;;;;19.70;11.45;;;15.40;67.70;;;;;;4908424;29;20091;-89
2022/09/22 08:32:17;;;;;;;15.38;10.48;;;15.60;67.10;;;;;;4923886;29;20072;-89
2022/09/22 08:34:45;;;;;;;16.85;11.10;;;15.70;65.60;;;;;;4908951;29;20036;-89
2022/09/22 08:37:12;;;;;;;15.20;9.98;;;15.90;65.20;;;;;;4910898;29;20237;-89
2022/09/22 08:39:38;;;;;;;16.90;8.57;;;16.10;65.20;;;;;;4913277;29;20357;-91
2022/09/22 08:42:21;;;;;;;14.63;9.35;;;16.10;63.30;;;;;;4910411;29;20040;-90
2022/09/22 08:45:20;;;;;;;15.80;9.68;;;16.40;62.10;;;;;;4918425;29;20084;-90
2022/09/22 08:53:51;;;;;;;11.70;8.70;;;16.60;61.60;;;;;;4917379;29;20084;-90
2022/09/22 08:56:31;;;;;;;14.63;8.70;;;16.90;61.40;;;;;;4906953;29;20036;-90
2022/09/22 08:59:17;;;;;;;15.48;9.50;;;16.90;61.40;;;;;;4909877;29;20042;-90
2022/09/22 09:02:07;;;;;;;14.95;9.55;;;17.10;60.50;;;;;;4923293;29;20048;-90
2022/09/22 09:04:49;;;;;;;13.98;8.40;;;17.00;61.60;;;;;;4911026;29;20393;-92
2022/09/22 09:07:25;;;;;;;13.75;8.40;;;17.10;60.90;;;;;;4907589;29;20424;-91
2022/09/22 09:10:20;;;;;;;14.63;7.70;;;17.20;59.90;;;;;;4913944;29;20051;-92
2022/09/22 09:13:07;;;;;;;14.87;7.37;;;17.30;59.60;;;;;;4911923;29;20048;-91
2022/09/22 09:16:09;;;;;;;10.52;6.97;;;17.40;58.20;;;;;;4919946;29;20371;-91
2022/09/22 09:18:40;;;;;;;10.77;6.70;;;17.50;57.70;;;;;;4924128;29;20047;-91
2022/09/22 09:21:12;;;;;;;12.75;6.85;;;17.60;56.90;;;;;;4921281;29;20107;-91
2022/09/22 09:23:48;;;;;;;13.57;6.97;;;17.60;58.40;;;;;;4907072;29;20044;-94
2022/09/22 09:26:18;;;;;;;12.98;7.80;;;17.80;58.30;;;;;;4900324;29;20115;-93
2022/09/22 09:28:50;;;;;;;16.02;7.65;;;17.80;57.00;;;;;;4902903;29;20103;-92
2022/09/22 09:31:26;;;;;;;12.73;7.75;;;17.90;56.00;;;;;;4906387;29;20052;-92
2022/09/22 09:33:59;;;;;;;12.68;7.22;;;17.80;57.40;;;;;;4906926;29;20040;-91
2022/09/22 09:36:30;;;;;;;12.57;7.97;;;17.80;58.30;;;;;;4922259;29;20101;-90
2022/09/22 09:38:57;;;;;;;13.05;7.38;;;18.10;56.60;;;;;;4925622;29;20396;-90
2022/09/22 09:41:35;;;;;;;13.75;7.75;;;18.10;56.50;;;;;;4908291;29;20092;-90
2022/09/22 09:44:02;;;;;;;10.10;6.97;;;18.20;55.50;;;;;;4923885;28;20027;-89
2022/09/22 09:46:28;;;;;;;11.57;6.65;;;18.30;55.70;;;;;;4922377;29;20477;-90
2022/09/22 09:49:13;;;;;;;10.98;6.13;;;18.40;55.10;;;;;;4910044;29;20029;-90
2022/09/22 09:51:42;;;;;;;12.27;6.57;;;18.40;54.10;;;;;;4907292;29;20048;-89
2022/09/22 09:54:11;;;;;;;10.23;6.43;;;18.60;53.90;;;;;;4905541;29;20039;-89
2022/09/22 09:57:00;;;;;;;11.23;5.90;;;18.70;54.00;;;;;;4904567;29;20066;-90
2022/09/22 10:02:16;;;;;;;11.65;5.72;;;18.90;52.50;;;;;;4908350;29;20673;-89
2022/09/22 10:05:01;;;;;;;12.15;6.13;;;19.10;53.10;;;;;;4909752;29;20391;-90
2022/09/22 10:07:27;;;;;;;;;;;19.10;51.30;;;;;;4926084;29;20476;-88
2022/09/22 10:09:55;;;;;;;12.30;6.63;;;19.20;52.60;;;;;;4908117;29;19942;-88
2022/09/22 10:12:28;;;;;;;14.02;6.60;;;19.40;52.20;;;;;;4906234;29;20044;-89
2022/09/22 10:14:59;;;;;;;9.05;6.30;;;19.50;53.20;;;;;;4908727;29;20044;-88
2022/09/22 10:17:37;;;;;;;10.65;5.78;;;19.70;51.60;;;;;;4908708;29;20387;-89
2022/09/22 10:20:29;;;;;;;8.23;4.90;;;19.70;51.20;;;;;;4913621;29;20044;-89
2022/09/22 10:22:55;;;;;;;10.07;5.13;;;19.80;51.90;;;;;;4923088;29;20265;-90
2022/09/22 10:25:23;;;;;;;9.68;5.03;;;19.90;50.20;;;;;;4921076;29;20063;-89
2022/09/22 10:28:08;;;;;;;10.50;5.53;;;19.90;50.00;;;;;;4920170;29;20044;-89
2022/09/22 10:30:38;;;;;;;11.10;6.57;;;20.00;50.80;;;;;;4918670;29;20126;-89
2022/09/22 10:33:15;;;;;;;11.82;5.18;;;20.00;49.80;;;;;;4909260;29;20041;-90
2022/09/22 10:36:04;;;;;;;10.45;4.78;;;20.00;50.10;;;;;;4902647;29;20433;-89
2022/09/22 10:38:33;;;;;;;9.77;4.95;;;20.10;47.70;;;;;;4905282;29;20552;-89
2022/09/22 10:41:06;;;;;;;10.30;5.53;;;20.10;48.80;;;;;;4920316;29;20495;-88
2022/09/22 10:43:54;;;;;;;9.70;5.18;;;20.10;49.70;;;;;;4920030;29;20128;-89
2022/09/22 10:46:37;;;;;;;11.80;5.93;;;20.10;48.70;;;;;;4901379;29;20047;-89
2022/09/22 10:49:41;;;;;;;13.43;6.32;;;20.10;49.70;;;;;;4902822;29;20512;-88
2022/09/22 10:52:12;;;;;;;12.48;5.10;;;20.30;49.10;;;;;;4916277;29;20147;-88
2022/09/22 10:55:01;;;;;;;9.60;4.95;;;20.10;48.20;;;;;;4905744;29;20040;-88
2022/09/22 10:57:51;;;;;;;9.82;4.65;;;20.10;48.00;;;;;;4904042;29;20054;-88
2022/09/22 11:00:22;;;;;;;10.57;4.07;;;20.40;48.70;;;;;;4917607;29;20040;-88
2022/09/22 11:03:29;;;;;;;11.95;4.55;;;20.40;47.30;;;;;;4911754;29;20204;-89
2022/09/22 11:12:15;;;;;;;7.32;4.05;;;20.60;45.70;;;;;;4905125;29;20074;-88
2022/09/22 11:15:03;;;;;;;9.05;3.53;;;20.60;47.10;;;;;;4915081;29;20086;-88
2022/09/22 11:17:51;;;;;;;8.95;3.50;;;20.60;46.70;;;;;;4911237;29;20041;-89
2022/09/22 11:20:36;;;;;;;15.13;3.97;;;20.50;46.30;;;;;;4902195;29;20124;-89
2022/09/22 11:23:20;;;;;;;;;;;20.60;46.00;;;;;;4921787;29;20047;-87
2022/09/22 11:26:04;;;;;;;7.07;3.00;;;20.80;46.80;;;;;;4903699;29;20017;-89
2022/09/22 11:28:42;;;;;;;;;;;20.90;46.10;;;;;;4917829;29;20040;-88
2022/09/22 11:31:19;;;;;;;7.75;3.30;;;20.90;45.60;;;;;;4903284;29;20360;-89
2022/09/22 11:34:22;;;;;;;9.45;3.63;;;20.90;46.60;;;;;;4920720;29;20540;-89
2022/09/22 11:37:24;;;;;;;7.47;3.20;;;20.80;45.30;;;;;;4908225;29;20547;-89
2022/09/22 11:39:56;;;;;;;6.88;2.63;;;21.00;44.90;;;;;;4907912;29;20048;-89
2022/09/22 11:42:31;;;;;;;8.95;2.85;;;21.10;45.20;;;;;;4912960;28;20529;-89
2022/09/22 11:45:20;;;;;;;7.38;2.83;;;21.10;43.80;;;;;;4925470;29;20065;-89
2022/09/22 11:48:01;;;;;;;6.45;2.30;;;21.10;43.10;;;;;;4899164;29;20171;-89
2022/09/22 11:50:39;;;;;;;5.55;2.33;;;21.10;44.50;;;;;;4916239;29;20046;-89
2022/09/22 11:53:42;;;;;;;5.18;2.20;;;21.10;42.30;;;;;;4925692;29;20028;-89
2022/09/22 11:56:49;;;;;;;4.85;2.22;;;21.00;44.00;;;;;;4926083;29;20119;-89
2022/09/22 11:59:54;;;;;;;5.70;2.63;;;21.10;43.50;;;;;;4880145;29;20079;-89
2022/09/22 12:02:25;;;;;;;5.72;2.03;;;21.10;42.90;;;;;;4910055;29;20576;-88
2022/09/22 12:05:03;;;;;;;4.70;2.13;;;21.10;42.20;;;;;;4926095;29;20438;-89
2022/09/22 12:08:03;;;;;;;4.68;2.00;;;21.10;40.90;;;;;;4911253;29;20036;-89
2022/09/22 12:10:34;;;;;;;5.50;2.08;;;20.90;42.90;;;;;;4908385;29;20049;-88
2022/09/22 12:13:02;;;;;;;7.32;2.30;;;21.10;43.20;;;;;;4910840;29;20056;-89
2022/09/22 12:15:57;;;;;;;4.80;1.85;;;21.30;41.40;;;;;;4909570;29;20040;-89
2022/09/22 12:18:51;;;;;;;6.75;2.60;;;21.30;42.90;;;;;;4908809;29;20067;-87
2022/09/22 12:21:23;;;;;;;7.57;3.00;;;21.10;41.60;;;;;;4903073;29;20481;-89
2022/09/22 12:23:51;;;;;;;5.35;2.35;;;20.90;41.70;;;;;;4910950;29;20077;-89
2022/09/22 12:26:41;;;;;;;6.75;1.90;;;20.90;42.00;;;;;;4922496;29;20035;-87
2022/09/22 12:29:13;;;;;;;5.25;2.33;;;21.00;42.30;;;;;;4906598;29;20038;-89
2022/09/22 12:31:41;;;;;;;6.22;2.45;;;21.00;42.40;;;;;;4907565;29;20135;-88
2022/09/22 12:34:19;;;;;;;7.70;2.45;;;21.10;42.20;;;;;;4907272;28;20039;-88
2022/09/22 12:36:47;;;;;;;5.75;2.17;;;21.10;42.00;;;;;;4924147;29;20115;-88
2022/09/22 12:39:18;;;;;;;6.55;2.40;;;21.20;42.20;;;;;;4909284;29;20388;-88
2022/09/22 12:41:51;;;;;;;4.97;2.00;;;21.20;44.20;;;;;;4912292;29;20048;-88
2022/09/22 12:44:23;;;;;;;8.45;2.20;;;21.30;42.10;;;;;;4906589;29;20388;-88
2022/09/22 12:46:51;;;;;;;8.07;2.28;;;21.50;42.60;;;;;;4907742;29;20033;-89
2022/09/22 12:49:21;;;;;;;5.57;2.13;;;21.60;41.90;;;;;;4907810;29;20082;-89
2022/09/22 12:51:47;;;;;;;4.60;2.00;;;21.60;41.20;;;;;;4910389;29;20139;-88
2022/09/22 12:54:35;;;;;;;4.93;2.00;;;21.30;41.50;;;;;;4922712;29;20606;-89
2022/09/22 12:57:02;;;;;;;4.18;2.15;;;21.40;41.50;;;;;;4921664;29;20138;-89
2022/09/22 12:59:40;;;;;;;5.60;2.33;;;21.50;41.50;;;;;;4907879;29;20047;-89
2022/09/22 13:02:25;;;;;;;5.43;1.77;;;21.40;41.40;;;;;;4911217;29;20637;-88
2022/09/22 13:04:54;;;;;;;6.10;2.20;;;21.40;41.40;;;;;;4925811;29;20483;-88
2022/09/22 13:07:39;;;;;;;4.20;1.90;;;21.40;40.90;;;;;;4907550;29;20480;-89
2022/09/22 13:10:23;;;;;;;5.65;1.80;;;21.40;41.30;;;;;;4905921;29;20055;-88
2022/09/22 13:13:04;;;;;;;5.25;1.90;;;21.50;40.80;;;;;;4910045;29;20099;-89
2022/09/22 13:15:53;;;;;;;5.88;1.80;;;21.60;41.70;;;;;;4923038;29;20056;-89
2022/09/22 13:18:38;;;;;;;4.55;1.70;;;21.80;41.80;;;;;;4906431;29;20556;-89
2022/09/22 13:21:13;;;;;;;6.95;2.20;;;21.80;41.00;;;;;;4922279;29;20064;-89
2022/09/22 13:23:51;;;;;;;6.05;1.83;;;21.80;40.30;;;;;;4923554;29;20047;-89
2022/09/22 13:26:39;;;;;;;4.10;1.90;;;21.90;40.10;;;;;;4918098;29;20076;-88
2022/09/22 13:29:22;;;;;;;7.32;2.45;;;21.80;40.30;;;;;;4909933;29;20504;-88